createdAt,value
2023-05-09T00:00:35.633Z,0.00
2023-05-09T00:01:35.627Z,0.00
2023-05-09T00:02:35.765Z,0.00
2023-05-09T00:03:35.624Z,0.00
2023-05-09T00:04:35.732Z,0.00
2023-05-09T00:05:35.652Z,0.00
2023-05-09T00:06:35.594Z,0.00
2023-05-09T00:07:36.589Z,0.00
2023-05-09T00:08:35.602Z,0.00
2023-05-09T00:09:35.587Z,0.00
2023-05-09T00:10:35.578Z,0.00
2023-05-09T00:11:35.566Z,0.00
2023-05-09T00:12:35.569Z,0.00
2023-05-09T00:13:35.557Z,0.00
2023-05-09T00:14:35.584Z,0.00
2023-05-09T00:15:35.549Z,0.00
2023-05-09T00:16:35.558Z,0.00
2023-05-09T00:17:35.554Z,0.00
2023-05-09T00:18:35.526Z,0.00
2023-05-09T00:19:35.570Z,0.00
2023-05-09T00:20:35.624Z,0.00
2023-05-09T00:21:35.514Z,0.00
2023-05-09T00:22:35.507Z,0.00
2023-05-09T00:23:35.574Z,0.00
2023-05-09T00:24:35.526Z,0.00
2023-05-09T00:25:35.526Z,0.00
2023-05-09T00:26:35.552Z,0.00
2023-05-09T00:27:35.461Z,0.00
2023-05-09T00:28:35.485Z,0.00
2023-05-09T00:29:35.496Z,0.00
2023-05-09T00:30:35.470Z,0.00
2023-05-09T00:31:35.480Z,0.00
2023-05-09T00:32:36.451Z,0.00
2023-05-09T00:33:35.443Z,0.00
2023-05-09T00:34:35.460Z,0.00
2023-05-09T00:35:35.407Z,0.00
2023-05-09T00:36:35.591Z,0.00
2023-05-09T00:37:35.452Z,0.00
2023-05-09T00:38:35.385Z,0.00
2023-05-09T00:39:35.376Z,0.00
2023-05-09T00:40:35.416Z,0.00
2023-05-09T00:41:35.367Z,0.00
2023-05-09T00:42:35.384Z,0.00
2023-05-09T00:43:35.349Z,0.00
2023-05-09T00:44:35.350Z,0.00
2023-05-09T00:45:35.375Z,0.00
2023-05-09T00:46:35.414Z,0.00
2023-05-09T00:47:35.381Z,0.00
2023-05-09T00:48:35.338Z,0.00
2023-05-09T00:49:35.336Z,0.00
2023-05-09T00:50:35.326Z,0.00
2023-05-09T00:51:35.311Z,0.00
2023-05-09T00:52:35.414Z,0.00
2023-05-09T00:53:35.314Z,0.00
2023-05-09T00:54:35.283Z,0.00
2023-05-09T00:55:35.288Z,0.00
2023-05-09T00:56:35.285Z,0.00
2023-05-09T00:57:35.266Z,0.00
2023-05-09T00:58:35.263Z,0.00
2023-05-09T00:59:35.268Z,0.00
2023-05-09T01:00:35.250Z,0.00
2023-05-09T01:01:35.306Z,0.00
2023-05-09T01:02:36.317Z,0.00
2023-05-09T01:03:35.403Z,0.00
2023-05-09T01:04:35.261Z,0.00
2023-05-09T01:05:35.212Z,0.00
2023-05-09T01:06:35.219Z,0.00
2023-05-09T01:07:35.191Z,0.00
2023-05-09T01:08:35.301Z,0.00
2023-05-09T01:09:35.189Z,0.00
2023-05-09T01:10:35.182Z,0.00
2023-05-09T01:11:35.191Z,0.00
2023-05-09T01:12:35.359Z,0.00
2023-05-09T01:13:35.176Z,0.00
2023-05-09T01:14:35.169Z,0.00
2023-05-09T01:15:35.172Z,0.00
2023-05-09T01:16:35.158Z,0.00
2023-05-09T01:17:35.223Z,0.00
2023-05-09T01:18:35.147Z,0.00
2023-05-09T01:19:35.151Z,0.00
2023-05-09T01:20:35.121Z,0.00
2023-05-09T01:21:35.118Z,0.00
2023-05-09T01:22:35.134Z,0.00
2023-05-09T01:23:35.107Z,0.00
2023-05-09T01:24:35.235Z,0.00
2023-05-09T01:25:35.127Z,0.00
2023-05-09T01:26:35.083Z,0.00
2023-05-09T01:27:35.107Z,0.00
2023-05-09T01:28:35.071Z,0.00
2023-05-09T01:29:35.071Z,0.00
2023-05-09T01:30:35.108Z,0.00
2023-05-09T01:31:35.063Z,0.00
2023-05-09T01:32:35.093Z,0.00
2023-05-09T01:33:35.031Z,0.00
2023-05-09T01:34:35.042Z,0.00
2023-05-09T01:35:35.037Z,0.00
2023-05-09T01:36:35.031Z,0.00
2023-05-09T01:37:35.033Z,0.00
2023-05-09T01:38:34.988Z,0.00
2023-05-09T01:39:36.019Z,0.00
2023-05-09T01:40:35.078Z,0.00
2023-05-09T01:41:34.976Z,0.00
2023-05-09T01:42:34.977Z,0.00
2023-05-09T01:43:35.003Z,0.00
2023-05-09T01:44:34.958Z,0.00
2023-05-09T01:45:34.958Z,0.00
2023-05-09T01:46:34.997Z,0.00
2023-05-09T01:47:34.977Z,0.00
2023-05-09T01:48:34.932Z,0.00
2023-05-09T01:49:34.922Z,0.00
2023-05-09T01:50:34.964Z,0.00
2023-05-09T01:51:34.926Z,0.00
2023-05-09T01:52:34.909Z,0.00
2023-05-09T01:53:34.917Z,0.00
2023-05-09T01:54:34.873Z,0.00
2023-05-09T01:55:34.927Z,0.00
2023-05-09T01:56:34.961Z,0.00
2023-05-09T01:57:34.875Z,0.00
2023-05-09T01:58:34.845Z,0.00
2023-05-09T01:59:34.837Z,0.00
2023-05-09T02:00:34.897Z,0.00
2023-05-09T02:01:34.886Z,0.00
2023-05-09T02:02:34.907Z,0.00
2023-05-09T02:03:34.830Z,0.00
2023-05-09T02:04:34.833Z,0.00
2023-05-09T02:05:34.832Z,0.00
2023-05-09T02:06:34.828Z,0.00
2023-05-09T02:07:34.796Z,0.00
2023-05-09T02:08:34.829Z,0.00
2023-05-09T02:09:35.771Z,0.00
2023-05-09T02:10:34.776Z,0.00
2023-05-09T02:11:34.770Z,0.00
2023-05-09T02:12:34.853Z,0.00
2023-05-09T02:13:34.740Z,0.00
2023-05-09T02:14:34.751Z,0.00
2023-05-09T02:15:34.779Z,0.00
2023-05-09T02:16:34.765Z,0.00
2023-05-09T02:17:34.772Z,0.00
2023-05-09T02:18:34.738Z,0.00
2023-05-09T02:19:34.706Z,0.00
2023-05-09T02:20:34.715Z,0.00
2023-05-09T02:21:34.703Z,0.00
2023-05-09T02:22:34.710Z,0.00
2023-05-09T02:23:34.678Z,0.00
2023-05-09T02:24:34.668Z,0.00
2023-05-09T02:25:34.673Z,0.00
2023-05-09T02:26:34.688Z,0.00
2023-05-09T02:27:35.288Z,0.00
2023-05-09T02:28:34.752Z,0.00
2023-05-09T02:29:34.670Z,0.00
2023-05-09T02:30:34.628Z,0.00
2023-05-09T02:31:34.686Z,0.00
2023-05-09T02:32:34.814Z,0.00
2023-05-09T02:33:34.635Z,0.00
2023-05-09T02:34:34.613Z,0.00
2023-05-09T02:35:34.597Z,0.00
2023-05-09T02:36:35.721Z,0.00
2023-05-09T02:37:34.646Z,0.00
2023-05-09T02:38:34.700Z,0.00
2023-05-09T02:39:34.575Z,0.00
2023-05-09T02:40:34.571Z,0.00
2023-05-09T02:41:34.601Z,0.00
2023-05-09T02:42:34.554Z,0.00
2023-05-09T02:43:34.747Z,0.00
2023-05-09T02:44:34.633Z,0.00
2023-05-09T02:45:34.532Z,0.00
2023-05-09T02:46:34.570Z,0.00
2023-05-09T02:47:34.594Z,0.00
2023-05-09T02:48:34.545Z,0.00
2023-05-09T02:49:34.511Z,0.00
2023-05-09T02:50:34.505Z,0.00
2023-05-09T02:51:34.510Z,0.00
2023-05-09T02:52:34.553Z,0.00
2023-05-09T02:53:34.472Z,0.00
2023-05-09T02:54:34.473Z,0.00
2023-05-09T02:55:34.505Z,0.00
2023-05-09T02:56:34.457Z,0.00
2023-05-09T02:57:34.464Z,0.00
2023-05-09T02:58:34.778Z,0.00
2023-05-09T02:59:34.459Z,0.00
2023-05-09T03:00:34.520Z,0.00
2023-05-09T03:01:34.511Z,0.00
2023-05-09T03:02:34.581Z,0.00
2023-05-09T03:03:34.821Z,0.00
2023-05-09T03:04:34.428Z,0.00
2023-05-09T03:05:34.420Z,0.00
2023-05-09T03:06:34.414Z,0.00
2023-05-09T03:07:34.404Z,0.00
2023-05-09T03:08:34.594Z,0.00
2023-05-09T03:09:34.414Z,0.00
2023-05-09T03:10:34.417Z,0.00
2023-05-09T03:11:34.354Z,0.00
2023-05-09T03:12:34.360Z,0.00
2023-05-09T03:13:34.615Z,0.00
2023-05-09T03:14:34.362Z,0.00
2023-05-09T03:15:34.379Z,0.00
2023-05-09T03:16:34.448Z,0.00
2023-05-09T03:17:34.333Z,0.00
2023-05-09T03:18:34.347Z,0.00
2023-05-09T03:19:34.316Z,0.00
2023-05-09T03:20:34.295Z,0.00
2023-05-09T03:21:34.311Z,0.00
2023-05-09T03:22:34.332Z,0.00
2023-05-09T03:23:34.340Z,0.00
2023-05-09T03:24:34.267Z,0.00
2023-05-09T03:25:34.275Z,0.00
2023-05-09T03:26:34.298Z,0.00
2023-05-09T03:27:34.298Z,0.00
2023-05-09T03:28:34.256Z,0.00
2023-05-09T03:29:34.281Z,0.00
2023-05-09T03:30:34.264Z,0.00
2023-05-09T03:31:34.303Z,0.00
2023-05-09T03:32:34.399Z,0.00
2023-05-09T03:33:34.232Z,0.00
2023-05-09T03:34:34.211Z,0.00
2023-05-09T03:35:34.246Z,0.00
2023-05-09T03:36:34.207Z,5.62
2023-05-09T03:37:34.199Z,5.62
2023-05-09T03:38:34.202Z,5.62
2023-05-09T03:39:34.189Z,5.62
2023-05-09T03:40:34.184Z,5.62
2023-05-09T03:41:34.175Z,5.62
2023-05-09T03:42:34.171Z,5.62
2023-05-09T03:43:34.155Z,5.62
2023-05-09T03:44:34.141Z,5.62
2023-05-09T03:45:34.133Z,11.25
2023-05-09T03:46:34.204Z,11.25
2023-05-09T03:47:35.145Z,11.25
2023-05-09T03:48:34.207Z,11.25
2023-05-09T03:49:34.119Z,11.25
2023-05-09T03:50:34.092Z,11.25
2023-05-09T03:51:34.157Z,16.88
2023-05-09T03:52:34.099Z,16.88
2023-05-09T03:53:34.097Z,16.88
2023-05-09T03:54:34.085Z,16.88
2023-05-09T03:55:34.080Z,16.88
2023-05-09T03:56:34.083Z,22.50
2023-05-09T03:57:34.055Z,22.50
2023-05-09T03:58:34.069Z,22.50
2023-05-09T03:59:34.708Z,22.50
2023-05-09T04:00:34.058Z,28.12
2023-05-09T04:02:06.511Z,28.12
2023-05-09T04:02:34.175Z,28.12
2023-05-09T04:03:34.134Z,28.12
2023-05-09T04:04:34.125Z,33.75
2023-05-09T04:05:34.006Z,33.75
2023-05-09T04:06:33.978Z,33.75
2023-05-09T04:07:35.059Z,39.38
2023-05-09T04:08:33.980Z,39.38
2023-05-09T04:09:33.978Z,39.38
2023-05-09T04:10:33.998Z,39.38
2023-05-09T04:11:33.965Z,39.38
2023-05-09T04:12:34.006Z,45.00
2023-05-09T04:13:33.962Z,45.00
2023-05-09T04:14:33.939Z,45.00
2023-05-09T04:15:33.963Z,50.62
2023-05-09T04:16:33.957Z,50.62
2023-05-09T04:17:33.979Z,50.62
2023-05-09T04:18:33.958Z,56.25
2023-05-09T04:19:33.938Z,56.25
2023-05-09T04:20:34.010Z,56.25
2023-05-09T04:21:34.011Z,61.88
2023-05-09T04:22:33.950Z,61.88
2023-05-09T04:23:33.973Z,61.88
2023-05-09T04:24:33.928Z,67.50
2023-05-09T04:25:33.894Z,67.50
2023-05-09T04:26:33.875Z,67.50
2023-05-09T04:27:33.915Z,73.12
2023-05-09T04:28:33.947Z,73.12
2023-05-09T04:29:34.975Z,73.12
2023-05-09T04:30:33.881Z,78.75
2023-05-09T04:31:33.924Z,78.75
2023-05-09T04:32:33.932Z,84.38
2023-05-09T04:33:34.158Z,84.38
2023-05-09T04:34:33.857Z,84.38
2023-05-09T04:35:33.835Z,90.00
2023-05-09T04:36:33.997Z,90.00
2023-05-09T04:37:33.834Z,90.00
2023-05-09T04:38:33.803Z,95.62
2023-05-09T04:39:33.824Z,95.62
2023-05-09T04:40:33.804Z,101.25
2023-05-09T04:41:33.797Z,101.25
2023-05-09T04:42:33.800Z,106.88
2023-05-09T04:43:33.777Z,106.88
2023-05-09T04:44:33.763Z,106.88
2023-05-09T04:45:33.788Z,112.50
2023-05-09T04:46:33.802Z,112.50
2023-05-09T04:47:33.803Z,112.50
2023-05-09T04:48:33.885Z,112.50
2023-05-09T04:49:33.731Z,112.50
2023-05-09T04:50:33.730Z,112.50
2023-05-09T04:51:33.714Z,118.12
2023-05-09T04:52:33.924Z,118.12
2023-05-09T04:53:33.751Z,118.12
2023-05-09T04:54:33.723Z,118.12
2023-05-09T04:55:33.710Z,123.75
2023-05-09T04:56:33.714Z,123.75
2023-05-09T04:57:33.804Z,129.38
2023-05-09T04:58:33.740Z,129.38
2023-05-09T04:59:33.730Z,135.00
2023-05-09T05:00:33.646Z,135.00
2023-05-09T05:01:33.675Z,140.62
2023-05-09T05:02:33.686Z,146.25
2023-05-09T05:03:33.708Z,151.88
2023-05-09T05:04:33.725Z,157.50
2023-05-09T05:05:35.258Z,157.50
2023-05-09T05:06:35.388Z,174.38
2023-05-09T05:07:33.628Z,174.38
2023-05-09T05:08:33.754Z,180.00
2023-05-09T05:09:33.607Z,180.00
2023-05-09T05:10:33.646Z,185.62
2023-05-09T05:11:33.620Z,185.62
2023-05-09T05:12:33.609Z,185.62
2023-05-09T05:13:33.601Z,185.62
2023-05-09T05:14:33.597Z,185.62
2023-05-09T05:15:33.564Z,185.62
2023-05-09T05:16:33.645Z,191.25
2023-05-09T05:17:33.589Z,185.62
2023-05-09T05:18:33.551Z,191.25
2023-05-09T05:19:33.527Z,196.88
2023-05-09T05:20:33.540Z,213.75
2023-05-09T05:21:33.539Z,219.38
2023-05-09T05:22:33.525Z,213.75
2023-05-09T05:24:06.854Z,241.88
2023-05-09T05:25:06.015Z,241.88
2023-05-09T05:26:06.010Z,253.12
2023-05-09T05:27:07.206Z,258.75
2023-05-09T05:28:06.107Z,258.75
2023-05-09T05:28:33.523Z,258.75
2023-05-09T05:30:06.954Z,258.75
2023-05-09T05:30:34.525Z,258.75
2023-05-09T05:31:34.512Z,258.75
2023-05-09T05:32:33.493Z,253.12
2023-05-09T05:33:33.453Z,253.12
2023-05-09T05:35:07.110Z,253.12
2023-05-09T05:35:33.467Z,241.88
2023-05-09T05:36:33.482Z,241.88
2023-05-09T05:37:33.590Z,241.88
2023-05-09T05:38:33.428Z,241.88
2023-05-09T05:39:33.509Z,247.50
2023-05-09T05:40:33.424Z,241.88
2023-05-09T05:41:33.520Z,241.88
2023-05-09T05:42:33.409Z,253.12
2023-05-09T05:43:33.397Z,258.75
2023-05-09T05:44:33.365Z,270.00
2023-05-09T05:45:33.993Z,281.25
2023-05-09T05:46:33.372Z,292.50
2023-05-09T05:47:33.423Z,292.50
2023-05-09T05:48:33.383Z,298.12
2023-05-09T05:49:33.371Z,303.75
2023-05-09T05:50:33.337Z,298.12
2023-05-09T05:51:33.344Z,303.75
2023-05-09T05:52:33.316Z,309.38
2023-05-09T05:53:33.594Z,320.62
2023-05-09T05:54:33.358Z,331.88
2023-05-09T05:55:33.391Z,343.12
2023-05-09T05:56:33.286Z,337.50
2023-05-09T05:57:33.305Z,343.12
2023-05-09T05:58:33.282Z,343.12
2023-05-09T05:59:33.294Z,343.12
2023-05-09T06:00:33.289Z,337.50
2023-05-09T06:01:33.266Z,320.62
2023-05-09T06:02:33.535Z,315.00
2023-05-09T06:03:33.404Z,309.38
2023-05-09T06:04:33.261Z,292.50
2023-05-09T06:05:33.270Z,286.88
2023-05-09T06:06:33.238Z,281.25
2023-05-09T06:07:33.327Z,281.25
2023-05-09T06:09:05.715Z,286.88
2023-05-09T06:09:33.239Z,298.12
2023-05-09T06:10:33.226Z,309.38
2023-05-09T06:11:33.303Z,309.38
2023-05-09T06:12:33.258Z,309.38
2023-05-09T06:13:33.206Z,315.00
2023-05-09T06:14:33.203Z,309.38
2023-05-09T06:15:33.178Z,298.12
2023-05-09T06:16:33.221Z,298.12
2023-05-09T06:17:33.186Z,292.50
2023-05-09T06:18:33.171Z,292.50
2023-05-09T06:19:33.206Z,292.50
2023-05-09T06:20:33.168Z,292.50
2023-05-09T06:21:33.136Z,309.38
2023-05-09T06:22:33.149Z,309.38
2023-05-09T06:23:33.214Z,326.25
2023-05-09T06:24:36.283Z,343.12
2023-05-09T06:25:34.141Z,360.00
2023-05-09T06:26:33.153Z,371.25
2023-05-09T06:27:33.199Z,388.12
2023-05-09T06:28:33.146Z,405.00
2023-05-09T06:29:33.167Z,421.88
2023-05-09T06:30:33.108Z,421.88
2023-05-09T06:31:33.134Z,427.50
2023-05-09T06:32:33.115Z,427.50
2023-05-09T06:33:33.076Z,438.75
2023-05-09T06:34:33.092Z,438.75
2023-05-09T06:35:33.095Z,433.12
2023-05-09T06:36:33.042Z,421.88
2023-05-09T06:37:33.018Z,416.25
2023-05-09T06:38:33.038Z,382.50
2023-05-09T06:39:33.037Z,360.00
2023-05-09T06:40:33.049Z,343.12
2023-05-09T06:41:33.039Z,331.88
2023-05-09T06:42:33.032Z,331.88
2023-05-09T06:43:33.128Z,320.62
2023-05-09T06:44:32.988Z,309.38
2023-05-09T06:45:33.146Z,298.12
2023-05-09T06:46:33.013Z,286.88
2023-05-09T06:47:33.055Z,275.62
2023-05-09T06:48:32.977Z,275.62
2023-05-09T06:49:32.952Z,281.25
2023-05-09T06:50:33.158Z,292.50
2023-05-09T06:51:32.953Z,309.38
2023-05-09T06:52:32.923Z,337.50
2023-05-09T06:53:32.968Z,360.00
2023-05-09T06:54:32.957Z,371.25
2023-05-09T06:55:32.907Z,393.75
2023-05-09T06:56:32.970Z,410.62
2023-05-09T06:57:32.983Z,421.88
2023-05-09T06:58:32.937Z,427.50
2023-05-09T06:59:33.003Z,438.75
2023-05-09T07:00:32.882Z,450.00
2023-05-09T07:01:32.880Z,461.25
2023-05-09T07:02:32.959Z,472.50
2023-05-09T07:03:32.906Z,489.38
2023-05-09T07:04:32.931Z,506.25
2023-05-09T07:05:32.973Z,523.12
2023-05-09T07:06:32.861Z,534.38
2023-05-09T07:07:32.857Z,551.25
2023-05-09T07:08:32.836Z,556.88
2023-05-09T07:09:32.830Z,579.38
2023-05-09T07:10:32.823Z,596.25
2023-05-09T07:11:32.849Z,613.12
2023-05-09T07:12:32.879Z,624.38
2023-05-09T07:13:32.790Z,635.62
2023-05-09T07:14:32.884Z,641.25
2023-05-09T07:15:41.125Z,635.62
2023-05-09T07:16:37.439Z,663.75
2023-05-09T07:17:32.859Z,793.12
2023-05-09T07:18:32.794Z,810.00
2023-05-09T07:19:32.808Z,697.50
2023-05-09T07:20:32.745Z,652.50
2023-05-09T07:21:32.742Z,652.50
2023-05-09T07:22:33.620Z,798.75
2023-05-09T07:23:32.745Z,928.12
2023-05-09T07:24:32.726Z,911.25
2023-05-09T07:25:32.729Z,928.12
2023-05-09T07:26:32.735Z,978.75
2023-05-09T07:27:32.744Z,511.88
2023-05-09T07:28:32.696Z,984.38
2023-05-09T07:29:33.718Z,984.38
2023-05-09T07:30:32.760Z,961.88
2023-05-09T07:31:34.038Z,573.75
2023-05-09T07:32:32.679Z,826.88
2023-05-09T07:33:32.686Z,506.25
2023-05-09T07:34:32.673Z,438.75
2023-05-09T07:35:32.679Z,450.00
2023-05-09T07:36:34.827Z,646.88
2023-05-09T07:37:32.663Z,950.62
2023-05-09T07:38:32.688Z,978.75
2023-05-09T07:39:32.633Z,1035.00
2023-05-09T07:40:32.633Z,1057.50
2023-05-09T07:41:32.619Z,832.50
2023-05-09T07:42:32.608Z,1102.50
2023-05-09T07:43:32.626Z,1012.50
2023-05-09T07:44:32.588Z,1158.75
2023-05-09T07:45:32.639Z,1243.12
2023-05-09T07:46:32.663Z,1158.75
2023-05-09T07:47:32.688Z,680.62
2023-05-09T07:48:32.764Z,815.62
2023-05-09T07:49:32.665Z,832.50
2023-05-09T07:50:32.718Z,759.38
2023-05-09T07:51:32.577Z,765.00
2023-05-09T07:52:32.582Z,731.25
2023-05-09T07:53:32.689Z,506.25
2023-05-09T07:54:32.601Z,579.38
2023-05-09T07:55:32.555Z,832.50
2023-05-09T07:56:32.604Z,860.62
2023-05-09T07:57:32.534Z,2205.00
2023-05-09T07:58:32.524Z,2266.88
2023-05-09T07:59:32.556Z,2013.75
2023-05-09T08:00:32.488Z,1890.00
2023-05-09T08:01:32.576Z,1940.62
2023-05-09T08:02:32.589Z,2025.00
2023-05-09T08:03:32.855Z,1991.25
2023-05-09T08:04:32.530Z,1861.88
2023-05-09T08:05:32.534Z,1873.12
2023-05-09T08:06:32.505Z,1929.38
2023-05-09T08:07:32.513Z,1946.25
2023-05-09T08:08:32.484Z,1473.75
2023-05-09T08:09:32.444Z,781.88
2023-05-09T08:10:32.519Z,770.62
2023-05-09T08:11:32.451Z,838.12
2023-05-09T08:12:32.423Z,691.88
2023-05-09T08:13:32.459Z,635.62
2023-05-09T08:14:32.435Z,601.88
2023-05-09T08:15:32.436Z,601.88
2023-05-09T08:16:32.605Z,579.38
2023-05-09T08:17:32.449Z,562.50
2023-05-09T08:18:32.499Z,556.88
2023-05-09T08:19:32.460Z,562.50
2023-05-09T08:20:32.388Z,590.62
2023-05-09T08:21:32.409Z,618.75
2023-05-09T08:22:32.390Z,635.62
2023-05-09T08:23:32.439Z,635.62
2023-05-09T08:24:32.384Z,658.12
2023-05-09T08:25:32.371Z,708.75
2023-05-09T08:26:32.339Z,787.50
2023-05-09T08:27:32.310Z,798.75
2023-05-09T08:28:33.381Z,804.38
2023-05-09T08:29:32.332Z,1260.00
2023-05-09T08:30:32.287Z,939.38
2023-05-09T08:31:32.343Z,1029.38
2023-05-09T08:32:32.290Z,821.25
2023-05-09T08:33:32.305Z,832.50
2023-05-09T08:34:32.319Z,1085.62
2023-05-09T08:35:32.419Z,928.12
2023-05-09T08:36:32.388Z,821.25
2023-05-09T08:37:32.253Z,945.00
2023-05-09T08:38:32.305Z,916.88
2023-05-09T08:39:32.251Z,877.50
2023-05-09T08:40:32.228Z,776.25
2023-05-09T08:41:32.243Z,742.50
2023-05-09T08:42:32.233Z,759.38
2023-05-09T08:43:32.291Z,832.50
2023-05-09T08:44:32.259Z,894.38
2023-05-09T08:45:32.186Z,995.62
2023-05-09T08:46:32.326Z,1091.25
2023-05-09T08:47:32.238Z,1040.62
2023-05-09T08:48:34.071Z,950.62
2023-05-09T08:49:32.178Z,1063.12
2023-05-09T08:50:32.184Z,922.50
2023-05-09T08:51:32.306Z,888.75
2023-05-09T08:52:32.237Z,1001.25
2023-05-09T08:53:32.208Z,883.12
2023-05-09T08:54:32.149Z,939.38
2023-05-09T08:55:32.178Z,1074.38
2023-05-09T08:56:32.229Z,1591.88
2023-05-09T08:57:32.206Z,928.12
2023-05-09T08:58:32.193Z,849.38
2023-05-09T08:59:32.208Z,855.00
2023-05-09T09:00:32.179Z,1068.75
2023-05-09T09:01:32.187Z,1108.12
2023-05-09T09:02:32.129Z,1468.12
2023-05-09T09:03:32.097Z,1822.50
2023-05-09T09:04:32.140Z,1861.88
2023-05-09T09:05:41.423Z,1873.12
2023-05-09T09:06:34.288Z,1563.75
2023-05-09T09:07:32.069Z,1929.38
2023-05-09T09:08:32.030Z,1715.62
2023-05-09T09:09:32.080Z,1850.62
2023-05-09T09:10:32.015Z,1833.75
2023-05-09T09:11:32.228Z,1996.88
2023-05-09T09:12:32.019Z,2030.62
2023-05-09T09:13:32.086Z,2019.38
2023-05-09T09:14:32.006Z,2053.12
2023-05-09T09:15:32.106Z,1991.25
2023-05-09T09:16:32.036Z,2041.88
2023-05-09T09:17:32.041Z,2058.75
2023-05-09T09:18:31.985Z,2002.50
2023-05-09T09:19:31.970Z,1878.75
2023-05-09T09:20:32.993Z,1878.75
2023-05-09T09:21:31.969Z,1935.00
2023-05-09T09:22:31.956Z,1878.75
2023-05-09T09:23:31.978Z,1895.62
2023-05-09T09:24:31.928Z,1878.75
2023-05-09T09:25:31.938Z,1861.88
2023-05-09T09:26:31.954Z,1901.25
2023-05-09T09:27:31.955Z,1884.38
2023-05-09T09:28:31.920Z,1839.38
2023-05-09T09:29:31.942Z,1828.12
2023-05-09T09:30:31.906Z,1726.88
2023-05-09T09:31:31.936Z,1906.88
2023-05-09T09:32:31.923Z,1873.12
2023-05-09T09:33:31.877Z,1749.38
2023-05-09T09:34:31.918Z,1726.88
2023-05-09T09:35:31.859Z,1777.50
2023-05-09T09:36:31.864Z,1766.25
2023-05-09T09:37:31.896Z,1805.62
2023-05-09T09:38:31.950Z,1642.50
2023-05-09T09:39:31.845Z,1743.75
2023-05-09T09:40:31.910Z,1845.00
2023-05-09T09:41:31.833Z,1974.38
2023-05-09T09:42:31.840Z,1946.25
2023-05-09T09:43:31.844Z,1805.62
2023-05-09T09:44:31.864Z,2002.50
2023-05-09T09:45:31.818Z,1985.62
2023-05-09T09:46:31.848Z,2008.12
2023-05-09T09:47:31.854Z,1878.75
2023-05-09T09:48:31.797Z,1760.62
2023-05-09T09:49:31.880Z,2115.00
2023-05-09T09:50:31.771Z,2070.00
2023-05-09T09:51:31.781Z,1805.62
2023-05-09T09:52:31.809Z,2081.25
2023-05-09T09:53:31.802Z,2058.75
2023-05-09T09:54:31.809Z,2109.38
2023-05-09T09:55:31.781Z,1760.62
2023-05-09T09:56:31.779Z,2058.75
2023-05-09T09:57:31.748Z,2019.38
2023-05-09T09:58:31.759Z,916.88
2023-05-09T09:59:31.779Z,1743.75
2023-05-09T10:00:31.752Z,1845.00
2023-05-09T10:01:31.780Z,1991.25
2023-05-09T10:02:31.814Z,1929.38
2023-05-09T10:03:32.778Z,1873.12
2023-05-09T10:04:31.780Z,1901.25
2023-05-09T10:05:31.842Z,1957.50
2023-05-09T10:06:31.732Z,2025.00
2023-05-09T10:07:31.798Z,877.50
2023-05-09T10:08:32.690Z,1935.00
2023-05-09T10:09:31.680Z,1316.25
2023-05-09T10:10:31.825Z,1951.88
2023-05-09T10:11:31.743Z,1771.88
2023-05-09T10:12:31.687Z,905.62
2023-05-09T10:13:31.704Z,1861.88
2023-05-09T10:14:34.273Z,1861.88
2023-05-09T10:15:38.480Z,1006.88
2023-05-09T10:16:43.871Z,1777.50
2023-05-09T10:17:33.811Z,1856.25
2023-05-09T10:18:31.993Z,1535.62
2023-05-09T10:19:31.653Z,894.38
2023-05-09T10:20:31.672Z,1726.88
2023-05-09T10:21:31.671Z,1732.50
2023-05-09T10:22:31.654Z,1372.50
2023-05-09T10:23:31.621Z,826.88
2023-05-09T10:24:31.667Z,900.00
2023-05-09T10:25:31.599Z,1175.62
2023-05-09T10:26:31.790Z,1490.62
2023-05-09T10:27:31.734Z,2053.12
2023-05-09T10:28:31.581Z,2013.75
2023-05-09T10:29:31.800Z,1051.88
2023-05-09T10:30:33.916Z,1243.12
2023-05-09T10:31:31.609Z,1231.88
2023-05-09T10:32:31.606Z,866.25
2023-05-09T10:33:31.569Z,888.75
2023-05-09T10:34:31.583Z,843.75
2023-05-09T10:35:31.633Z,720.00
2023-05-09T10:36:31.588Z,568.12
2023-05-09T10:37:31.661Z,511.88
2023-05-09T10:38:31.585Z,506.25
2023-05-09T10:39:31.560Z,540.00
2023-05-09T10:40:31.561Z,590.62
2023-05-09T10:41:31.560Z,652.50
2023-05-09T10:42:31.715Z,759.38
2023-05-09T10:43:32.172Z,877.50
2023-05-09T10:44:32.535Z,1856.25
2023-05-09T10:45:31.520Z,995.62
2023-05-09T10:46:31.548Z,855.00
2023-05-09T10:47:31.575Z,843.75
2023-05-09T10:48:31.472Z,900.00
2023-05-09T10:49:31.512Z,1023.75
2023-05-09T10:50:31.476Z,1800.00
2023-05-09T10:52:04.977Z,1051.88
2023-05-09T10:53:06.179Z,1209.38
2023-05-09T10:53:31.510Z,1046.25
2023-05-09T10:56:37.504Z,691.88
2023-05-09T10:58:11.134Z,686.25
2023-05-09T10:59:12.040Z,793.12
2023-05-09T11:00:11.023Z,877.50
2023-05-09T11:01:12.006Z,1710.00
2023-05-09T11:02:11.007Z,1395.00
2023-05-09T11:02:38.677Z,1209.38
2023-05-09T11:03:38.626Z,973.12
2023-05-09T11:04:38.596Z,1985.62
2023-05-09T11:05:38.548Z,1850.62
2023-05-09T11:06:39.504Z,1501.88
2023-05-09T11:07:38.594Z,1895.62
2023-05-09T11:08:38.512Z,855.00
2023-05-09T11:09:38.596Z,1063.12
2023-05-09T11:10:38.600Z,1265.62
2023-05-09T11:11:38.524Z,877.50
2023-05-09T11:12:38.533Z,883.12
2023-05-09T11:13:38.580Z,703.12
2023-05-09T11:14:38.510Z,680.62
2023-05-09T11:15:38.478Z,675.00
2023-05-09T11:16:38.536Z,669.38
2023-05-09T11:17:38.578Z,753.75
2023-05-09T11:18:38.472Z,646.88
2023-05-09T11:19:38.440Z,601.88
2023-05-09T11:20:38.479Z,534.38
2023-05-09T11:21:38.447Z,500.62
2023-05-09T11:22:38.432Z,500.62
2023-05-09T11:23:38.439Z,573.75
2023-05-09T11:24:38.425Z,894.38
2023-05-09T11:25:38.413Z,669.38
2023-05-09T11:26:38.425Z,703.12
2023-05-09T11:27:38.389Z,551.25
2023-05-09T11:28:38.445Z,551.25
2023-05-09T11:29:38.480Z,601.88
2023-05-09T11:30:38.560Z,618.75
2023-05-09T11:31:38.412Z,658.12
2023-05-09T11:32:38.442Z,720.00
2023-05-09T11:33:38.389Z,624.38
2023-05-09T11:34:38.404Z,624.38
2023-05-09T11:35:38.373Z,646.88
2023-05-09T11:36:38.366Z,624.38
2023-05-09T11:37:38.345Z,652.50
2023-05-09T11:38:38.365Z,573.75
2023-05-09T11:39:38.340Z,562.50
2023-05-09T11:40:38.340Z,596.25
2023-05-09T11:41:38.354Z,641.25
2023-05-09T11:42:38.313Z,714.38
2023-05-09T11:43:38.306Z,776.25
2023-05-09T11:44:38.329Z,781.88
2023-05-09T11:45:38.433Z,781.88
2023-05-09T11:46:38.288Z,815.62
2023-05-09T11:47:38.328Z,888.75
2023-05-09T11:48:38.282Z,877.50
2023-05-09T11:49:38.282Z,990.00
2023-05-09T11:50:38.298Z,1743.75
2023-05-09T11:51:38.272Z,1726.88
2023-05-09T11:52:38.255Z,1147.50
2023-05-09T11:53:38.264Z,1445.62
2023-05-09T11:54:38.253Z,1215.00
2023-05-09T11:55:38.275Z,1170.00
2023-05-09T11:56:38.244Z,1665.00
2023-05-09T11:57:38.264Z,1226.25
2023-05-09T11:58:38.266Z,1141.88
2023-05-09T11:59:38.220Z,1231.88
2023-05-09T12:00:38.300Z,1524.38
2023-05-09T12:01:38.394Z,1288.12
2023-05-09T12:02:38.266Z,1395.00
2023-05-09T12:03:38.313Z,1558.12
2023-05-09T12:04:38.269Z,1670.62
2023-05-09T12:05:38.178Z,1462.50
2023-05-09T12:06:38.187Z,1906.88
2023-05-09T12:07:38.189Z,1873.12
2023-05-09T12:08:38.217Z,1591.88
2023-05-09T12:09:38.183Z,1141.88
2023-05-09T12:10:38.150Z,1417.50
2023-05-09T12:11:38.222Z,1445.62
2023-05-09T12:12:38.405Z,1698.75
2023-05-09T12:13:38.337Z,1456.88
2023-05-09T12:14:38.132Z,1361.25
2023-05-09T12:15:38.828Z,1260.00
2023-05-09T12:16:38.232Z,1181.25
2023-05-09T12:17:38.294Z,1715.62
2023-05-09T12:18:38.136Z,1462.50
2023-05-09T12:19:38.099Z,855.00
2023-05-09T12:20:38.092Z,855.00
2023-05-09T12:21:38.083Z,860.62
2023-05-09T12:22:38.107Z,1018.12
2023-05-09T12:23:38.104Z,1428.75
2023-05-09T12:24:38.105Z,787.50
2023-05-09T12:25:38.077Z,1018.12
2023-05-09T12:26:38.073Z,950.62
2023-05-09T12:27:38.042Z,1473.75
2023-05-09T12:28:38.067Z,1428.75
2023-05-09T12:29:38.046Z,1355.62
2023-05-09T12:30:38.016Z,1276.88
2023-05-09T12:31:38.110Z,956.25
2023-05-09T12:32:38.080Z,1192.50
2023-05-09T12:33:38.136Z,1147.50
2023-05-09T12:34:38.008Z,810.00
2023-05-09T12:35:38.029Z,765.00
2023-05-09T12:36:38.016Z,798.75
2023-05-09T12:37:37.973Z,821.25
2023-05-09T12:38:38.011Z,888.75
2023-05-09T12:39:37.977Z,742.50
2023-05-09T12:40:37.997Z,770.62
2023-05-09T12:41:44.066Z,900.00